Time;durP1;ratioP1;P1;durP2;ratioP2;P2;SDS_P1;SDS_P2;PMS_P1;PMS_P2;Temp;Humidity;BMP_temperature;BMP_pressure;BME280_temperature;BME280_humidity;BME280_pressure;Samples;Min_cycle;Max_cycle;Signal;HPM_P1;HPM_P2
2021/08/27 00:02:20;;;;;;;29.98;3.50;;;;;;;;;;5010894;28;20037;-33
2021/08/27 00:04:47;;;;;;;31.05;3.20;;;;;;;;;;5007672;28;20409;-36
2021/08/27 00:07:14;;;;;;;23.48;2.30;;;;;;;;;;5005330;28;20033;-35
2021/08/27 00:09:41;;;;;;;25.15;3.42;;;;;;;;;;5006590;28;20607;-41
2021/08/27 00:12:09;;;;;;;25.67;3.05;;;;;;;;;;4999166;28;20029;-41
2021/08/27 00:14:36;;;;;;;37.55;4.40;;;;;;;;;;4999104;28;20022;-38
2021/08/27 00:17:03;;;;;;;34.70;3.85;;;;;;;;;;5000887;28;20033;-40
2021/08/27 00:19:30;;;;;;;28.95;3.38;;;;;;;;;;5009606;28;20501;-39
2021/08/27 00:21:57;;;;;;;31.75;2.97;;;;;;;;;;5005994;28;20034;-40
2021/08/27 00:24:24;;;;;;;25.42;4.07;;;;;;;;;;5001146;28;20072;-37
2021/08/27 00:26:52;;;;;;;24.30;3.15;;;;;;;;;;5001776;28;20028;-38
2021/08/27 00:29:19;;;;;;;28.50;3.10;;;;;;;;;;4994893;28;20050;-36
2021/08/27 00:31:45;;;;;;;24.77;2.88;;;;;;;;;;5005741;28;20030;-40
2021/08/27 00:34:13;;;;;;;24.40;3.08;;;;;;;;;;5000889;28;20061;-38
2021/08/27 00:36:40;;;;;;;20.25;2.22;;;;;;;;;;4994911;28;20120;-37
2021/08/27 00:39:07;;;;;;;21.88;3.30;;;;;;;;;;4999762;28;20030;-38
2021/08/27 00:41:34;;;;;;;19.20;2.78;;;;;;;;;;4998731;28;20033;-34
2021/08/27 00:44:01;;;;;;;26.15;3.38;;;;;;;;;;5005788;28;20541;-40
2021/08/27 00:46:28;;;;;;;17.15;2.60;;;;;;;;;;5011597;28;20041;-36
2021/08/27 00:48:55;;;;;;;12.20;2.38;;;;;;;;;;5013290;28;20043;-40
2021/08/27 00:51:22;;;;;;;19.45;2.60;;;;;;;;;;5007847;28;20014;-38
2021/08/27 00:53:49;;;;;;;25.88;3.88;;;;;;;;;;5007955;28;20053;-35
2021/08/27 00:56:16;;;;;;;27.58;8.35;;;;;;;;;;5008387;28;20045;-34
2021/08/27 00:58:44;;;;;;;34.17;11.02;;;;;;;;;;5007185;28;20026;-36
2021/08/27 01:01:11;;;;;;;35.40;14.73;;;;;;;;;;5010107;28;20018;-35
2021/08/27 01:03:38;;;;;;;50.83;23.73;;;;;;;;;;5007886;28;20476;-35
2021/08/27 01:06:10;;;;;;;62.05;25.13;;;;;;;;;;5003870;28;20026;-37
2021/08/27 01:08:36;;;;;;;;;;;;;;;;;;4998433;28;20374;-36
2021/08/27 01:11:22;;;;;;;62.90;23.90;;;;;;;;;;5003086;28;20409;-41
2021/08/27 01:13:55;;;;;;;61.88;23.40;;;;;;;;;;5003454;28;20221;-39
2021/08/27 01:16:27;;;;;;;56.53;24.52;;;;;;;;;;5002971;28;20022;-34
2021/08/27 01:19:12;;;;;;;45.15;20.33;;;;;;;;;;4999682;28;20158;-38
2021/08/27 01:21:49;;;;;;;55.67;21.40;;;;;;;;;;5003922;28;20137;-38
2021/08/27 01:24:17;;;;;;;54.72;21.30;;;;;;;;;;5002819;28;20038;-40
2021/08/27 01:26:49;;;;;;;60.00;20.92;;;;;;;;;;4995502;28;20025;-43
2021/08/27 01:29:28;;;;;;;46.25;18.20;;;;;;;;;;5007740;28;20093;-41
2021/08/27 01:32:02;;;;;;;44.65;19.05;;;;;;;;;;5009387;28;20021;-39
2021/08/27 01:34:30;;;;;;;36.03;18.52;;;;;;;;;;5006053;28;20033;-37
2021/08/27 01:36:57;;;;;;;43.28;17.83;;;;;;;;;;5006399;28;20118;-36
2021/08/27 01:39:50;;;;;;;40.72;17.38;;;;;;;;;;5006210;28;20025;-36
2021/08/27 01:42:20;;;;;;;37.15;16.33;;;;;;;;;;5004634;28;20065;-39
2021/08/27 01:44:48;;;;;;;42.30;16.67;;;;;;;;;;5011542;28;20033;-34
2021/08/27 01:47:16;;;;;;;35.85;15.18;;;;;;;;;;5010332;28;20536;-35
2021/08/27 01:49:45;;;;;;;39.70;14.45;;;;;;;;;;5011224;28;20025;-35
2021/08/27 01:52:13;;;;;;;44.00;14.45;;;;;;;;;;5010186;28;20092;-37
2021/08/27 01:54:40;;;;;;;31.65;13.10;;;;;;;;;;5006166;28;20034;-35
2021/08/27 01:57:08;;;;;;;36.83;13.65;;;;;;;;;;4997462;28;20029;-37
2021/08/27 01:59:43;;;;;;;28.25;12.82;;;;;;;;;;5011164;28;20076;-35
2021/08/27 02:02:12;;;;;;;38.42;12.55;;;;;;;;;;5004821;28;20105;-37
2021/08/27 02:04:41;;;;;;;29.20;12.05;;;;;;;;;;4992337;28;20037;-38
2021/08/27 02:07:08;;;;;;;34.45;11.38;;;;;;;;;;4996780;28;20041;-35
2021/08/27 02:09:36;;;;;;;32.25;10.77;;;;;;;;;;4992869;28;20034;-34
2021/08/27 02:12:03;;;;;;;29.27;11.73;;;;;;;;;;4992418;28;20445;-37
2021/08/27 02:14:31;;;;;;;24.25;10.25;;;;;;;;;;4996607;28;20049;-36
2021/08/27 02:16:58;;;;;;;26.85;9.77;;;;;;;;;;4995060;28;20466;-37
2021/08/27 02:19:25;;;;;;;32.85;10.15;;;;;;;;;;4993038;28;20019;-35
2021/08/27 02:21:53;;;;;;;22.73;8.77;;;;;;;;;;5006630;28;20029;-34
2021/08/27 02:24:26;;;;;;;20.40;9.10;;;;;;;;;;5001036;28;20038;-35
2021/08/27 02:26:54;;;;;;;22.27;8.30;;;;;;;;;;4996615;28;20165;-35
2021/08/27 02:29:21;;;;;;;29.33;8.82;;;;;;;;;;4993001;28;20054;-35
2021/08/27 02:31:52;;;;;;;19.67;7.97;;;;;;;;;;5006108;28;20043;-34
2021/08/27 02:34:20;;;;;;;24.58;8.55;;;;;;;;;;5011297;28;20030;-37
2021/08/27 02:36:49;;;;;;;21.30;8.18;;;;;;;;;;5012020;28;20022;-35
2021/08/27 02:39:17;;;;;;;26.83;9.23;;;;;;;;;;5008815;28;20025;-36
2021/08/27 02:41:44;;;;;;;16.77;6.85;;;;;;;;;;5011975;28;20026;-35
2021/08/27 02:44:11;;;;;;;29.63;7.80;;;;;;;;;;5011338;28;20545;-35
2021/08/27 02:46:39;;;;;;;17.58;6.78;;;;;;;;;;5011924;28;20026;-36
2021/08/27 02:49:06;;;;;;;20.63;6.97;;;;;;;;;;5010875;28;20037;-37
2021/08/27 02:51:40;;;;;;;21.90;6.88;;;;;;;;;;5011921;28;20022;-36
2021/08/27 02:54:09;;;;;;;18.33;6.10;;;;;;;;;;5011661;28;20036;-36
2021/08/27 02:56:38;;;;;;;16.00;6.43;;;;;;;;;;5011721;28;20022;-37
2021/08/27 02:59:11;;;;;;;22.00;6.47;;;;;;;;;;5011279;28;20030;-34
2021/08/27 03:01:40;;;;;;;20.40;6.78;;;;;;;;;;5011558;28;20029;-34
2021/08/27 03:04:07;;;;;;;20.10;5.88;;;;;;;;;;5011579;28;20026;-35
2021/08/27 03:06:55;;;;;;;20.85;6.22;;;;;;;;;;5011012;28;20421;-35
2021/08/27 03:09:24;;;;;;;12.20;6.00;;;;;;;;;;5011469;28;20029;-34
2021/08/27 03:12:12;;;;;;;14.57;5.50;;;;;;;;;;5011254;28;20033;-37
2021/08/27 03:14:43;;;;;;;12.15;5.78;;;;;;;;;;5011062;28;20474;-35
2021/08/27 03:17:11;;;;;;;11.55;5.05;;;;;;;;;;5011793;28;20022;-36
2021/08/27 03:19:52;;;;;;;15.00;5.97;;;;;;;;;;5011668;28;20042;-36
2021/08/27 03:22:22;;;;;;;17.15;4.85;;;;;;;;;;5011269;28;20026;-36
2021/08/27 03:24:56;;;;;;;14.07;5.53;;;;;;;;;;5011248;28;20034;-35
2021/08/27 03:27:25;;;;;;;14.88;5.32;;;;;;;;;;5011148;28;20022;-37
2021/08/27 03:29:59;;;;;;;13.25;5.18;;;;;;;;;;5011569;28;20482;-35
2021/08/27 03:32:27;;;;;;;14.23;4.63;;;;;;;;;;5010888;28;20555;-36
2021/08/27 03:34:54;;;;;;;14.77;4.50;;;;;;;;;;5010089;28;20037;-35
2021/08/27 03:37:21;;;;;;;11.73;5.10;;;;;;;;;;5010892;28;20022;-34
2021/08/27 03:39:50;;;;;;;13.63;4.82;;;;;;;;;;5011493;28;20053;-34
2021/08/27 03:42:18;;;;;;;13.18;4.47;;;;;;;;;;5010667;28;20054;-35
2021/08/27 03:44:46;;;;;;;9.73;4.22;;;;;;;;;;5011493;28;20034;-37
2021/08/27 03:47:14;;;;;;;10.73;4.40;;;;;;;;;;5010871;28;20058;-35
2021/08/27 03:49:42;;;;;;;10.57;4.65;;;;;;;;;;5011164;28;20072;-37
2021/08/27 03:52:09;;;;;;;8.45;4.25;;;;;;;;;;5010600;28;20022;-36
2021/08/27 03:54:36;;;;;;;10.20;4.32;;;;;;;;;;5011121;28;20149;-36
2021/08/27 03:57:04;;;;;;;10.13;4.65;;;;;;;;;;5009479;28;20040;-36
2021/08/27 03:59:32;;;;;;;10.57;3.97;;;;;;;;;;5012134;28;20501;-35
2021/08/27 04:01:59;;;;;;;11.10;4.32;;;;;;;;;;5014394;28;20036;-37
2021/08/27 04:04:26;;;;;;;8.50;4.57;;;;;;;;;;5014135;28;20030;-40
2021/08/27 04:06:54;;;;;;;9.52;4.53;;;;;;;;;;5014739;28;20018;-37
2021/08/27 04:09:22;;;;;;;10.95;4.00;;;;;;;;;;5014407;28;20030;-39
2021/08/27 04:11:49;;;;;;;9.02;3.83;;;;;;;;;;5014477;28;20018;-36
2021/08/27 04:14:17;;;;;;;9.35;3.80;;;;;;;;;;5014067;28;20497;-40
2021/08/27 04:16:47;;;;;;;8.10;3.65;;;;;;;;;;5014471;28;20026;-38
2021/08/27 04:19:14;;;;;;;9.07;3.67;;;;;;;;;;5014324;28;20056;-38
2021/08/27 04:21:42;;;;;;;9.25;3.53;;;;;;;;;;5013981;28;20022;-35
2021/08/27 04:24:09;;;;;;;8.73;3.22;;;;;;;;;;5014171;28;20029;-36
2021/08/27 04:26:37;;;;;;;10.10;3.65;;;;;;;;;;5014102;28;20024;-36
2021/08/27 04:29:04;;;;;;;11.98;3.70;;;;;;;;;;5013793;28;20034;-36
2021/08/27 04:31:31;;;;;;;9.07;3.00;;;;;;;;;;5012844;28;20029;-37
2021/08/27 04:33:58;;;;;;;8.65;3.90;;;;;;;;;;5013744;28;20523;-36
2021/08/27 04:36:25;;;;;;;7.03;3.20;;;;;;;;;;5014365;28;20064;-37
2021/08/27 04:38:52;;;;;;;8.25;3.40;;;;;;;;;;5014208;28;20034;-37
2021/08/27 04:41:19;;;;;;;8.95;3.50;;;;;;;;;;5013637;28;20489;-37
2021/08/27 04:43:50;;;;;;;9.32;3.05;;;;;;;;;;5014254;28;20084;-39
2021/08/27 04:46:17;;;;;;;9.32;3.58;;;;;;;;;;5013474;28;20034;-40
2021/08/27 04:48:44;;;;;;;8.93;3.22;;;;;;;;;;5014132;28;20442;-37
2021/08/27 04:51:11;;;;;;;9.02;3.13;;;;;;;;;;5013475;28;20022;-35
2021/08/27 04:53:38;;;;;;;7.28;3.08;;;;;;;;;;5013659;28;20547;-35
2021/08/27 04:56:05;;;;;;;6.05;2.85;;;;;;;;;;5012095;28;20022;-37
2021/08/27 04:58:33;;;;;;;6.95;3.13;;;;;;;;;;5013800;28;20026;-36
2021/08/27 05:00:59;;;;;;;10.68;2.80;;;;;;;;;;5013227;28;20026;-36
2021/08/27 05:03:26;;;;;;;6.78;2.63;;;;;;;;;;5013563;28;20029;-38
2021/08/27 05:05:53;;;;;;;7.97;3.42;;;;;;;;;;5013194;28;20034;-37
2021/08/27 05:08:21;;;;;;;7.57;2.95;;;;;;;;;;5013657;28;20025;-36
2021/08/27 05:10:48;;;;;;;6.05;2.70;;;;;;;;;;5012509;28;20049;-36
2021/08/27 05:13:15;;;;;;;5.85;2.60;;;;;;;;;;5011718;28;20450;-37
2021/08/27 05:15:42;;;;;;;8.13;2.70;;;;;;;;;;5013642;28;20092;-37
2021/08/27 05:18:09;;;;;;;5.40;2.65;;;;;;;;;;5013020;28;20025;-37
2021/08/27 05:20:36;;;;;;;5.55;2.33;;;;;;;;;;5013336;28;20022;-37
2021/08/27 05:23:03;;;;;;;7.75;2.45;;;;;;;;;;5012687;28;20029;-37
2021/08/27 05:25:30;;;;;;;7.47;2.58;;;;;;;;;;5013079;28;20037;-35
2021/08/27 05:27:57;;;;;;;12.23;2.53;;;;;;;;;;5012644;28;20108;-35
2021/08/27 05:30:24;;;;;;;5.80;2.33;;;;;;;;;;5012956;28;20045;-37
2021/08/27 05:32:52;;;;;;;4.45;2.03;;;;;;;;;;5012529;28;20084;-36
2021/08/27 05:35:19;;;;;;;4.82;2.30;;;;;;;;;;5012820;28;20025;-35
2021/08/27 05:37:46;;;;;;;5.13;2.30;;;;;;;;;;5012521;28;20022;-36
2021/08/27 05:40:13;;;;;;;7.82;2.60;;;;;;;;;;5013327;28;20438;-37
2021/08/27 05:42:41;;;;;;;6.25;2.53;;;;;;;;;;5010653;28;20679;-34
2021/08/27 05:45:09;;;;;;;5.07;2.20;;;;;;;;;;5012899;28;20041;-36
2021/08/27 05:47:36;;;;;;;5.43;2.40;;;;;;;;;;5012347;28;20026;-36
2021/08/27 05:50:04;;;;;;;3.70;2.10;;;;;;;;;;5011857;28;20378;-36
2021/08/27 05:52:31;;;;;;;5.68;2.30;;;;;;;;;;5011042;28;20561;-35
2021/08/27 05:54:58;;;;;;;8.32;2.50;;;;;;;;;;5012818;28;20029;-36
2021/08/27 05:57:25;;;;;;;4.10;2.33;;;;;;;;;;5012812;28;20108;-35
2021/08/27 05:59:52;;;;;;;6.60;1.92;;;;;;;;;;5010853;28;20069;-35
2021/08/27 06:02:19;;;;;;;3.40;1.75;;;;;;;;;;5012867;28;20577;-35
2021/08/27 06:04:47;;;;;;;7.03;2.10;;;;;;;;;;5011912;28;20066;-34
2021/08/27 06:07:14;;;;;;;4.28;1.85;;;;;;;;;;5012575;28;20026;-36
2021/08/27 06:09:42;;;;;;;3.75;1.83;;;;;;;;;;5011970;28;20041;-36
2021/08/27 06:12:10;;;;;;;5.85;2.20;;;;;;;;;;5012447;28;20377;-34
2021/08/27 06:14:37;;;;;;;6.22;1.98;;;;;;;;;;5010428;28;20025;-38
2021/08/27 06:17:04;;;;;;;4.63;2.15;;;;;;;;;;5012457;28;20018;-34
2021/08/27 06:19:31;;;;;;;4.45;2.00;;;;;;;;;;5012046;28;20025;-36
2021/08/27 06:21:58;;;;;;;3.67;1.65;;;;;;;;;;5012265;28;20474;-35
2021/08/27 06:24:25;;;;;;;5.03;2.03;;;;;;;;;;5010322;28;20087;-36
2021/08/27 06:26:52;;;;;;;4.15;1.60;;;;;;;;;;5010763;28;20362;-36
2021/08/27 06:29:19;;;;;;;5.80;1.80;;;;;;;;;;5012190;28;20046;-34
2021/08/27 06:31:46;;;;;;;4.40;1.75;;;;;;;;;;5011464;28;20048;-36
2021/08/27 06:34:13;;;;;;;4.90;1.83;;;;;;;;;;5012249;28;20532;-37
2021/08/27 06:36:40;;;;;;;4.35;1.80;;;;;;;;;;5010319;28;20045;-38
2021/08/27 06:39:07;;;;;;;5.25;1.65;;;;;;;;;;5011852;28;20029;-38
2021/08/27 06:41:34;;;;;;;4.50;1.73;;;;;;;;;;5011536;28;20020;-36
2021/08/27 06:44:01;;;;;;;3.92;1.48;;;;;;;;;;5011634;28;20038;-36
2021/08/27 06:46:29;;;;;;;4.22;1.40;;;;;;;;;;5010398;28;20040;-38
2021/08/27 06:48:56;;;;;;;3.45;1.65;;;;;;;;;;5012099;28;20029;-36
2021/08/27 06:51:23;;;;;;;4.10;1.60;;;;;;;;;;5011155;28;20045;-39
2021/08/27 06:53:53;;;;;;;4.53;1.67;;;;;;;;;;5011670;28;20054;-37
2021/08/27 06:56:24;;;;;;;4.65;1.92;;;;;;;;;;5011147;28;20018;-37
2021/08/27 06:58:51;;;;;;;4.88;1.92;;;;;;;;;;5011828;28;20028;-36
2021/08/27 07:01:18;;;;;;;4.05;1.40;;;;;;;;;;5011749;28;20034;-36
2021/08/27 07:03:45;;;;;;;2.30;1.33;;;;;;;;;;5011273;28;20041;-35
2021/08/27 07:06:13;;;;;;;4.45;1.40;;;;;;;;;;5011565;28;20025;-36
2021/08/27 07:08:40;;;;;;;2.65;1.35;;;;;;;;;;5011230;28;20097;-36
2021/08/27 07:11:07;;;;;;;2.75;1.40;;;;;;;;;;5011743;28;20022;-35
2021/08/27 07:13:34;;;;;;;2.17;1.25;;;;;;;;;;5010575;28;20470;-38
2021/08/27 07:16:01;;;;;;;1.75;1.00;;;;;;;;;;5011429;28;20034;-37
2021/08/27 07:18:29;;;;;;;4.47;1.50;;;;;;;;;;5011166;28;20018;-36
2021/08/27 07:20:56;;;;;;;4.97;1.35;;;;;;;;;;5004073;28;20027;-37
2021/08/27 07:23:24;;;;;;;2.92;1.17;;;;;;;;;;5006713;28;20058;-36
2021/08/27 07:25:51;;;;;;;3.17;1.50;;;;;;;;;;5010229;28;20034;-36
2021/08/27 07:28:19;;;;;;;3.75;1.30;;;;;;;;;;4989447;28;20023;-35
2021/08/27 07:30:46;;;;;;;3.25;1.27;;;;;;;;;;5008763;28;20417;-35
2021/08/27 07:33:13;;;;;;;3.28;1.40;;;;;;;;;;5001146;28;20502;-36
2021/08/27 07:35:40;;;;;;;4.03;1.08;;;;;;;;;;5003752;28;20044;-35
2021/08/27 07:38:07;;;;;;;5.00;1.10;;;;;;;;;;5014894;28;20018;-35
2021/08/27 07:40:34;;;;;;;2.58;1.20;;;;;;;;;;5014958;28;20041;-35
2021/08/27 07:43:01;;;;;;;4.55;1.33;;;;;;;;;;5015378;28;20025;-35
2021/08/27 07:45:29;;;;;;;4.25;1.48;;;;;;;;;;5014501;28;20096;-36
2021/08/27 07:47:56;;;;;;;3.53;1.20;;;;;;;;;;5014328;28;20014;-35
2021/08/27 07:50:23;;;;;;;3.10;1.30;;;;;;;;;;5013111;28;20026;-35
2021/08/27 07:52:50;;;;;;;3.90;1.35;;;;;;;;;;5014535;28;20021;-34
2021/08/27 07:55:17;;;;;;;6.25;1.45;;;;;;;;;;5014305;28;20048;-35
2021/08/27 07:57:44;;;;;;;2.15;1.25;;;;;;;;;;5014975;28;20021;-36
2021/08/27 08:00:12;;;;;;;2.13;1.23;;;;;;;;;;5014435;28;20034;-34
2021/08/27 08:02:39;;;;;;;3.88;1.13;;;;;;;;;;5014035;28;20061;-35
2021/08/27 08:05:07;;;;;;;2.90;1.35;;;;;;;;;;5013074;28;20030;-35
2021/08/27 08:07:34;;;;;;;3.08;1.38;;;;;;;;;;5013774;28;20022;-36
2021/08/27 08:10:01;;;;;;;4.97;1.85;;;;;;;;;;5014681;28;20027;-37
2021/08/27 08:12:28;;;;;;;2.60;1.20;;;;;;;;;;5014261;28;20155;-36
2021/08/27 08:14:55;;;;;;;3.13;1.20;;;;;;;;;;5000963;28;20028;-37
2021/08/27 08:17:22;;;;;;;3.72;1.20;;;;;;;;;;5013746;28;20033;-37
2021/08/27 08:19:49;;;;;;;3.90;1.38;;;;;;;;;;5014671;28;20088;-37
2021/08/27 08:22:17;;;;;;;1.90;1.10;;;;;;;;;;5013967;28;20026;-36
2021/08/27 08:24:44;;;;;;;1.88;0.90;;;;;;;;;;5014052;28;20049;-35
2021/08/27 08:27:11;;;;;;;3.17;0.90;;;;;;;;;;5012799;28;20029;-36
2021/08/27 08:29:38;;;;;;;2.35;1.20;;;;;;;;;;5014039;28;20057;-36
2021/08/27 08:32:06;;;;;;;2.17;0.98;;;;;;;;;;5013840;28;20024;-36
2021/08/27 08:34:33;;;;;;;4.05;1.23;;;;;;;;;;5014838;28;20460;-36
2021/08/27 08:37:00;;;;;;;2.05;1.08;;;;;;;;;;5013528;28;20057;-37
2021/08/27 08:39:27;;;;;;;2.25;1.00;;;;;;;;;;5014337;28;20033;-36
2021/08/27 08:41:54;;;;;;;2.17;1.00;;;;;;;;;;5013865;28;20022;-35
2021/08/27 08:44:22;;;;;;;2.58;0.95;;;;;;;;;;5014038;28;20033;-36
2021/08/27 08:46:49;;;;;;;2.17;1.10;;;;;;;;;;5012660;28;20064;-37
2021/08/27 08:49:17;;;;;;;3.88;1.27;;;;;;;;;;5013749;28;20026;-37
2021/08/27 08:51:45;;;;;;;3.22;0.82;;;;;;;;;;5013889;28;20054;-36
2021/08/27 08:54:13;;;;;;;8.45;1.55;;;;;;;;;;5013521;28;20048;-37
2021/08/27 08:56:43;;;;;;;2.80;1.15;;;;;;;;;;5013881;28;20026;-37
2021/08/27 08:59:11;;;;;;;2.58;0.95;;;;;;;;;;5009844;28;20026;-35
2021/08/27 09:01:38;;;;;;;3.40;1.40;;;;;;;;;;5013100;28;20032;-35
2021/08/27 09:04:05;;;;;;;5.95;0.90;;;;;;;;;;5013192;28;20531;-38
2021/08/27 09:06:34;;;;;;;5.20;1.27;;;;;;;;;;5013306;28;20056;-39
2021/08/27 09:09:01;;;;;;;6.15;1.40;;;;;;;;;;5013203;28;20022;-37
2021/08/27 09:11:29;;;;;;;2.40;1.00;;;;;;;;;;5013386;28;20490;-35
2021/08/27 09:13:58;;;;;;;1.92;1.02;;;;;;;;;;5013260;28;20094;-36
2021/08/27 09:16:27;;;;;;;3.67;1.20;;;;;;;;;;5013284;28;20022;-36
2021/08/27 09:18:54;;;;;;;2.20;0.80;;;;;;;;;;5013338;28;20030;-36
2021/08/27 09:21:28;;;;;;;2.85;1.20;;;;;;;;;;5012722;28;20021;-37
2021/08/27 09:24:14;;;;;;;3.55;0.90;;;;;;;;;;5006375;28;20030;-36
2021/08/27 09:26:42;;;;;;;4.18;1.10;;;;;;;;;;5007725;28;20051;-36
2021/08/27 09:29:09;;;;;;;3.58;1.20;;;;;;;;;;5013117;28;20037;-35
2021/08/27 09:31:36;;;;;;;2.78;1.20;;;;;;;;;;5004968;28;20025;-35
2021/08/27 09:34:04;;;;;;;5.43;1.17;;;;;;;;;;5013332;28;20373;-35
2021/08/27 09:36:31;;;;;;;5.30;1.20;;;;;;;;;;5012454;28;20033;-37
2021/08/27 09:39:02;;;;;;;3.72;1.20;;;;;;;;;;5013053;28;20026;-36
2021/08/27 09:41:29;;;;;;;16.90;2.20;;;;;;;;;;5013273;28;20107;-37
2021/08/27 09:43:57;;;;;;;8.27;1.13;;;;;;;;;;5012963;28;20488;-36
2021/08/27 09:46:45;;;;;;;6.00;1.00;;;;;;;;;;5010758;28;20026;-37
2021/08/27 09:49:28;;;;;;;6.93;1.13;;;;;;;;;;5012483;28;20022;-36
2021/08/27 09:51:55;;;;;;;2.85;1.02;;;;;;;;;;5012410;28;20029;-36
2021/08/27 09:54:27;;;;;;;2.75;1.00;;;;;;;;;;5012467;28;20048;-36
2021/08/27 09:56:55;;;;;;;9.32;1.42;;;;;;;;;;5003003;28;20080;-37
2021/08/27 09:59:38;;;;;;;7.43;1.55;;;;;;;;;;5011776;28;20039;-37
2021/08/27 10:02:06;;;;;;;13.02;2.22;;;;;;;;;;5011893;28;20108;-35
2021/08/27 10:04:34;;;;;;;7.00;1.40;;;;;;;;;;5012236;28;20061;-36
2021/08/27 10:07:01;;;;;;;6.75;1.10;;;;;;;;;;5012004;28;20092;-35
2021/08/27 10:09:48;;;;;;;8.05;1.40;;;;;;;;;;5012090;28;20509;-36
2021/08/27 10:12:15;;;;;;;9.45;1.73;;;;;;;;;;5011835;28;20032;-37
2021/08/27 10:14:42;;;;;;;13.90;1.65;;;;;;;;;;5011957;28;20026;-37
2021/08/27 10:17:09;;;;;;;12.45;1.52;;;;;;;;;;5010942;28;20018;-36
2021/08/27 10:19:36;;;;;;;9.25;1.30;;;;;;;;;;5009096;28;20029;-36
2021/08/27 10:22:04;;;;;;;12.57;1.40;;;;;;;;;;5012080;28;20434;-36
2021/08/27 10:24:31;;;;;;;5.35;1.17;;;;;;;;;;5011596;28;20121;-37
2021/08/27 10:26:59;;;;;;;11.88;1.40;;;;;;;;;;5011977;28;20034;-37
2021/08/27 10:29:27;;;;;;;14.65;1.50;;;;;;;;;;5012051;28;20046;-38
2021/08/27 10:31:54;;;;;;;16.85;2.25;;;;;;;;;;5012087;28;20092;-37
2021/08/27 10:34:39;;;;;;;8.85;1.35;;;;;;;;;;5011657;28;20022;-40
2021/08/27 10:37:06;;;;;;;7.88;1.55;;;;;;;;;;5012296;28;20096;-38
2021/08/27 10:39:38;;;;;;;19.65;2.33;;;;;;;;;;5007273;28;20022;-36
2021/08/27 10:42:06;;;;;;;19.33;2.53;;;;;;;;;;5011568;28;20026;-41
2021/08/27 10:44:53;;;;;;;14.15;2.28;;;;;;;;;;5011729;28;20040;-36
2021/08/27 10:47:20;;;;;;;17.58;1.90;;;;;;;;;;5011540;28;20033;-37
2021/08/27 10:49:47;;;;;;;14.45;1.77;;;;;;;;;;5011566;28;20036;-36
2021/08/27 10:52:35;;;;;;;22.40;2.70;;;;;;;;;;5011245;28;20022;-36
2021/08/27 10:55:05;;;;;;;19.55;2.35;;;;;;;;;;5011532;28;20021;-37
2021/08/27 10:57:54;;;;;;;24.85;2.58;;;;;;;;;;5011232;28;20026;-35
2021/08/27 11:00:41;;;;;;;29.23;2.60;;;;;;;;;;5011768;28;20125;-38
2021/08/27 11:03:09;;;;;;;33.53;4.72;;;;;;;;;;5011748;28;20029;-37
2021/08/27 11:05:36;;;;;;;26.35;3.78;;;;;;;;;;5011355;28;20033;-36
2021/08/27 11:08:04;;;;;;;33.08;3.03;;;;;;;;;;5010134;28;20026;-37
2021/08/27 11:10:31;;;;;;;45.85;4.50;;;;;;;;;;5010131;28;20025;-42
2021/08/27 11:12:58;;;;;;;330.98;19.80;;;;;;;;;;5010970;28;20033;-38
2021/08/27 11:15:28;;;;;;;167.48;11.52;;;;;;;;;;5011756;28;20442;-38
2021/08/27 11:18:07;;;;;;;230.90;23.98;;;;;;;;;;5010534;28;20029;-42
2021/08/27 11:20:35;;;;;;;374.35;32.03;;;;;;;;;;5011520;28;20053;-40
2021/08/27 11:23:01;;;;;;;;;;;;;;;;;;5011166;28;20383;-50
2021/08/27 11:25:27;;;;;;;;;;;;;;;;;;5011857;28;19917;-50
2021/08/27 11:27:54;;;;;;;;;;;;;;;;;;5011054;28;19905;-48
2021/08/27 11:30:20;;;;;;;;;;;;;;;;;;5012029;28;20476;-51
2021/08/27 11:32:47;;;;;;;;;;;;;;;;;;5010943;28;19905;-48
2021/08/27 11:35:13;;;;;;;;;;;;;;;;;;5012059;28;20388;-45
2021/08/27 11:37:39;;;;;;;;;;;;;;;;;;5011370;28;19905;-48
2021/08/27 11:40:06;;;;;;;;;;;;;;;;;;5011637;28;19937;-51
2021/08/27 11:42:32;;;;;;;;;;;;;;;;;;5011965;28;19917;-54
2021/08/27 11:45:04;;;;;;;;;;;;;;;;;;5011090;28;20352;-57
2021/08/27 11:47:31;;;;;;;;;;;;;;;;;;5011467;28;19999;-46
2021/08/27 11:50:00;;;;;;;;;;;;;;;;;;5011023;28;19909;-49
2021/08/27 11:52:27;;;;;;;;;;;;;;;;;;5011621;28;19913;-47
2021/08/27 11:54:53;;;;;;;;;;;;;;;;;;5010988;28;19910;-49
2021/08/27 11:57:21;;;;;;;198.93;26.13;;;;;;;;;;5010772;28;19931;-56
2021/08/27 11:59:48;;;;;;;188.25;23.50;;;;;;;;;;5011061;28;20381;-57
2021/08/27 12:02:17;;;;;;;185.98;23.15;;;;;;;;;;5011038;28;20049;-58
2021/08/27 12:04:44;;;;;;;162.80;20.85;;;;;;;;;;5011237;28;20037;-61
2021/08/27 12:07:13;;;;;;;179.50;22.13;;;;;;;;;;5010792;28;20033;-55
2021/08/27 12:09:40;;;;;;;165.88;19.27;;;;;;;;;;5010731;28;20105;-54
2021/08/27 12:12:08;;;;;;;151.63;20.35;;;;;;;;;;5011301;28;20018;-58
2021/08/27 12:14:53;;;;;;;156.93;19.98;;;;;;;;;;5010540;28;20029;-58
2021/08/27 12:17:24;;;;;;;143.90;19.20;;;;;;;;;;5011010;28;20026;-57
2021/08/27 12:19:52;;;;;;;142.00;18.30;;;;;;;;;;5010577;28;20018;-60
2021/08/27 12:22:21;;;;;;;129.15;17.23;;;;;;;;;;5014649;28;20112;-58
2021/08/27 12:24:49;;;;;;;125.20;17.38;;;;;;;;;;5000066;28;20520;-49
2021/08/27 12:27:16;;;;;;;124.88;17.83;;;;;;;;;;5014776;28;20545;-60
2021/08/27 12:29:43;;;;;;;112.10;16.35;;;;;;;;;;5014002;28;20121;-59
2021/08/27 12:32:18;;;;;;;121.85;17.60;;;;;;;;;;5013956;28;20045;-56
2021/08/27 12:34:46;;;;;;;127.15;17.90;;;;;;;;;;5014521;28;20022;-50
2021/08/27 12:37:14;;;;;;;119.35;16.00;;;;;;;;;;5013973;28;20024;-56
2021/08/27 12:39:41;;;;;;;111.55;16.45;;;;;;;;;;5013975;28;20486;-54
2021/08/27 12:42:12;;;;;;;110.53;17.63;;;;;;;;;;5014194;28;20370;-51
2021/08/27 12:44:56;;;;;;;110.47;16.45;;;;;;;;;;5014113;28;20041;-53
2021/08/27 12:47:35;;;;;;;91.45;14.57;;;;;;;;;;5013861;28;20068;-61
2021/08/27 12:50:04;;;;;;;108.75;15.20;;;;;;;;;;5013226;28;20647;-58
2021/08/27 12:52:31;;;;;;;95.75;13.70;;;;;;;;;;5013698;28;20029;-51
2021/08/27 12:54:59;;;;;;;97.80;15.27;;;;;;;;;;5012604;28;20389;-59
2021/08/27 12:57:26;;;;;;;101.32;14.48;;;;;;;;;;5013375;28;20501;-60
2021/08/27 12:59:57;;;;;;;95.97;14.40;;;;;;;;;;5013820;28;20489;-58
2021/08/27 13:02:24;;;;;;;75.18;13.13;;;;;;;;;;5013204;28;20481;-57
2021/08/27 13:04:53;;;;;;;94.05;13.88;;;;;;;;;;5013973;28;20049;-55
2021/08/27 13:07:32;;;;;;;87.03;14.07;;;;;;;;;;5013063;28;20022;-49
2021/08/27 13:10:09;;;;;;;83.88;14.20;;;;;;;;;;5013380;28;20022;-53
2021/08/27 13:12:36;;;;;;;84.88;14.13;;;;;;;;;;5011558;28;20351;-56
2021/08/27 13:15:05;;;;;;;80.35;13.10;;;;;;;;;;5012631;28;20022;-57
2021/08/27 13:17:32;;;;;;;79.38;12.50;;;;;;;;;;5011678;28;20450;-55
2021/08/27 13:19:59;;;;;;;86.50;12.95;;;;;;;;;;5012775;28;20026;-56
2021/08/27 13:22:32;;;;;;;75.72;10.57;;;;;;;;;;5011969;28;20045;-61
2021/08/27 13:25:07;;;;;;;75.75;12.10;;;;;;;;;;5012657;28;20060;-60
2021/08/27 13:27:35;;;;;;;75.00;9.82;;;;;;;;;;5012892;28;20085;-57
2021/08/27 13:30:04;;;;;;;73.55;10.68;;;;;;;;;;5011897;28;20053;-56
2021/08/27 13:32:42;;;;;;;65.88;10.45;;;;;;;;;;5012008;28;20029;-58
2021/08/27 13:35:13;;;;;;;66.88;10.00;;;;;;;;;;5011114;28;20109;-56
2021/08/27 13:37:41;;;;;;;43.78;8.63;;;;;;;;;;5000386;28;20180;-58
2021/08/27 13:40:08;;;;;;;50.63;9.23;;;;;;;;;;5009979;28;20358;-60
2021/08/27 13:42:35;;;;;;;56.72;7.80;;;;;;;;;;5013101;28;20108;-61
2021/08/27 13:45:02;;;;;;;46.88;6.55;;;;;;;;;;5012042;28;20486;-55
2021/08/27 13:47:29;;;;;;;43.45;5.85;;;;;;;;;;5011661;28;20425;-54
2021/08/27 13:50:00;;;;;;;40.30;5.30;;;;;;;;;;5011979;28;20115;-56
2021/08/27 13:52:27;;;;;;;33.17;4.65;;;;;;;;;;5012856;28;20362;-52
2021/08/27 13:54:54;;;;;;;35.15;5.68;;;;;;;;;;5012418;28;20076;-54
2021/08/27 13:57:21;;;;;;;29.80;5.43;;;;;;;;;;5011889;28;20044;-54
2021/08/27 13:59:48;;;;;;;21.83;4.82;;;;;;;;;;5012502;28;20036;-56
2021/08/27 14:02:15;;;;;;;38.95;5.15;;;;;;;;;;5011204;28;20113;-53
2021/08/27 14:04:44;;;;;;;32.55;4.60;;;;;;;;;;5012283;28;20523;-55
2021/08/27 14:07:12;;;;;;;28.38;3.83;;;;;;;;;;5011649;28;20066;-55
2021/08/27 14:09:39;;;;;;;22.73;3.83;;;;;;;;;;5011790;28;20026;-57
2021/08/27 14:12:06;;;;;;;21.15;3.35;;;;;;;;;;5011474;28;20030;-55
2021/08/27 14:14:33;;;;;;;29.77;3.92;;;;;;;;;;5011999;28;20052;-56
2021/08/27 14:17:00;;;;;;;41.85;4.28;;;;;;;;;;5011554;28;20022;-54
2021/08/27 14:19:27;;;;;;;25.08;3.05;;;;;;;;;;5011604;28;20025;-55
2021/08/27 14:21:54;;;;;;;24.88;3.05;;;;;;;;;;5003296;28;20030;-52
2021/08/27 14:24:21;;;;;;;35.95;2.78;;;;;;;;;;4984520;28;20489;-46
2021/08/27 14:26:49;;;;;;;20.42;2.72;;;;;;;;;;4986243;28;20034;-51
2021/08/27 14:29:16;;;;;;;29.70;3.10;;;;;;;;;;4991622;28;20136;-56
2021/08/27 14:31:45;;;;;;;25.40;2.88;;;;;;;;;;5001465;28;20033;-57
2021/08/27 14:34:12;;;;;;;15.88;2.05;;;;;;;;;;5010659;28;20118;-53
2021/08/27 14:36:40;;;;;;;25.63;2.33;;;;;;;;;;5012165;28;20028;-56
2021/08/27 14:39:07;;;;;;;16.27;2.10;;;;;;;;;;5010352;28;20087;-57
2021/08/27 14:41:35;;;;;;;17.63;2.47;;;;;;;;;;5009715;28;20116;-53
2021/08/27 14:44:04;;;;;;;37.78;4.07;;;;;;;;;;5010626;28;20057;-58
2021/08/27 14:46:31;;;;;;;27.67;2.67;;;;;;;;;;5011192;28;20092;-56